sensor_id;sensor_type;location;lat;lon;timestamp;temperature;humidity
55135;DHT22;41031;44.750;11.308;2023-03-31T00:00:17;11.70;87.20
55135;DHT22;41031;44.750;11.308;2023-03-31T00:02:44;11.70;87.60
55135;DHT22;41031;44.750;11.308;2023-03-31T00:05:11;11.70;87.90
55135;DHT22;41031;44.750;11.308;2023-03-31T00:07:44;11.70;87.60
55135;DHT22;41031;44.750;11.308;2023-03-31T00:10:12;11.60;87.70
55135;DHT22;41031;44.750;11.308;2023-03-31T00:12:44;11.60;87.80
55135;DHT22;41031;44.750;11.308;2023-03-31T00:15:12;11.50;87.80
55135;DHT22;41031;44.750;11.308;2023-03-31T00:17:39;11.40;88.50
55135;DHT22;41031;44.750;11.308;2023-03-31T00:20:06;11.40;89.10
55135;DHT22;41031;44.750;11.308;2023-03-31T00:22:38;11.40;89.70
55135;DHT22;41031;44.750;11.308;2023-03-31T00:25:15;11.40;90.00
55135;DHT22;41031;44.750;11.308;2023-03-31T00:27:43;11.40;90.20
55135;DHT22;41031;44.750;11.308;2023-03-31T00:30:12;11.40;90.30
55135;DHT22;41031;44.750;11.308;2023-03-31T00:32:39;11.40;90.30
55135;DHT22;41031;44.750;11.308;2023-03-31T00:35:07;11.40;90.20
55135;DHT22;41031;44.750;11.308;2023-03-31T00:37:34;11.40;90.20
55135;DHT22;41031;44.750;11.308;2023-03-31T00:40:02;11.40;90.30
55135;DHT22;41031;44.750;11.308;2023-03-31T00:42:39;11.50;90.50
55135;DHT22;41031;44.750;11.308;2023-03-31T00:50:25;11.50;90.70
55135;DHT22;41031;44.750;11.308;2023-03-31T00:52:58;11.50;90.70
55135;DHT22;41031;44.750;11.308;2023-03-31T00:55:33;11.50;90.80
55135;DHT22;41031;44.750;11.308;2023-03-31T00:58:02;11.50;90.80
55135;DHT22;41031;44.750;11.308;2023-03-31T01:00:31;11.50;90.70
55135;DHT22;41031;44.750;11.308;2023-03-31T01:03:01;11.60;90.80
55135;DHT22;41031;44.750;11.308;2023-03-31T01:05:46;11.60;90.80
55135;DHT22;41031;44.750;11.308;2023-03-31T01:08:17;11.60;90.90
55135;DHT22;41031;44.750;11.308;2023-03-31T01:10:55;11.50;90.90
55135;DHT22;41031;44.750;11.308;2023-03-31T01:13:23;11.50;90.80
55135;DHT22;41031;44.750;11.308;2023-03-31T01:15:52;11.50;90.80
55135;DHT22;41031;44.750;11.308;2023-03-31T01:18:20;11.50;90.80
55135;DHT22;41031;44.750;11.308;2023-03-31T01:26:48;11.50;90.80
55135;DHT22;41031;44.750;11.308;2023-03-31T01:32:40;11.50;90.70
55135;DHT22;41031;44.750;11.308;2023-03-31T01:49:40;11.40;90.80
55135;DHT22;41031;44.750;11.308;2023-03-31T01:52:26;11.40;90.80
55135;DHT22;41031;44.750;11.308;2023-03-31T01:55:03;11.40;90.90
55135;DHT22;41031;44.750;11.308;2023-03-31T01:57:36;11.40;90.90
55135;DHT22;41031;44.750;11.308;2023-03-31T02:00:16;11.40;90.80
55135;DHT22;41031;44.750;11.308;2023-03-31T02:05:26;11.40;90.70
55135;DHT22;41031;44.750;11.308;2023-03-31T02:10:45;11.30;90.50
55135;DHT22;41031;44.750;11.308;2023-03-31T02:13:15;11.20;90.60
55135;DHT22;41031;44.750;11.308;2023-03-31T02:15:46;11.20;90.80
55135;DHT22;41031;44.750;11.308;2023-03-31T02:18:16;11.10;90.90
55135;DHT22;41031;44.750;11.308;2023-03-31T02:20:47;11.10;91.00
55135;DHT22;41031;44.750;11.308;2023-03-31T02:23:18;11.00;90.90
55135;DHT22;41031;44.750;11.308;2023-03-31T02:25:58;11.00;90.90
55135;DHT22;41031;44.750;11.308;2023-03-31T02:28:27;11.00;91.00
55135;DHT22;41031;44.750;11.308;2023-03-31T02:33:57;10.90;90.90
55135;DHT22;41031;44.750;11.308;2023-03-31T02:36:24;10.80;90.90
55135;DHT22;41031;44.750;11.308;2023-03-31T02:39:02;10.80;91.00
55135;DHT22;41031;44.750;11.308;2023-03-31T02:41:31;10.80;91.00
55135;DHT22;41031;44.750;11.308;2023-03-31T02:43:59;10.70;91.00
55135;DHT22;41031;44.750;11.308;2023-03-31T02:46:26;10.70;91.10
55135;DHT22;41031;44.750;11.308;2023-03-31T02:48:56;10.60;91.20
55135;DHT22;41031;44.750;11.308;2023-03-31T03:05:46;10.40;90.90
55135;DHT22;41031;44.750;11.308;2023-03-31T03:16:49;10.40;91.20
55135;DHT22;41031;44.750;11.308;2023-03-31T03:19:21;10.40;91.30
55135;DHT22;41031;44.750;11.308;2023-03-31T03:21:48;10.40;91.50
55135;DHT22;41031;44.750;11.308;2023-03-31T03:24:16;10.40;91.60
55135;DHT22;41031;44.750;11.308;2023-03-31T03:26:44;10.40;91.60
55135;DHT22;41031;44.750;11.308;2023-03-31T03:29:12;10.30;91.50
55135;DHT22;41031;44.750;11.308;2023-03-31T03:31:43;10.30;91.20
55135;DHT22;41031;44.750;11.308;2023-03-31T03:34:10;10.20;91.00
55135;DHT22;41031;44.750;11.308;2023-03-31T03:36:37;10.20;91.00
55135;DHT22;41031;44.750;11.308;2023-03-31T03:39:06;10.20;91.10
55135;DHT22;41031;44.750;11.308;2023-03-31T03:41:33;10.20;91.10
55135;DHT22;41031;44.750;11.308;2023-03-31T03:44:00;10.10;91.20
55135;DHT22;41031;44.750;11.308;2023-03-31T03:46:27;10.10;91.20
55135;DHT22;41031;44.750;11.308;2023-03-31T03:48:54;10.10;91.30
55135;DHT22;41031;44.750;11.308;2023-03-31T03:51:22;10.20;91.40
55135;DHT22;41031;44.750;11.308;2023-03-31T03:53:49;10.20;91.50
55135;DHT22;41031;44.750;11.308;2023-03-31T03:56:16;10.20;91.60
55135;DHT22;41031;44.750;11.308;2023-03-31T03:58:43;10.20;91.80
55135;DHT22;41031;44.750;11.308;2023-03-31T04:01:10;10.20;91.90
55135;DHT22;41031;44.750;11.308;2023-03-31T04:03:37;10.20;92.00
55135;DHT22;41031;44.750;11.308;2023-03-31T04:06:04;10.20;91.90
55135;DHT22;41031;44.750;11.308;2023-03-31T04:08:31;10.20;91.80
55135;DHT22;41031;44.750;11.308;2023-03-31T04:10:58;10.10;91.60
55135;DHT22;41031;44.750;11.308;2023-03-31T04:13:26;10.10;91.70
55135;DHT22;41031;44.750;11.308;2023-03-31T04:15:53;10.10;92.00
55135;DHT22;41031;44.750;11.308;2023-03-31T04:18:20;10.10;92.20
55135;DHT22;41031;44.750;11.308;2023-03-31T04:20:50;10.10;92.30
55135;DHT22;41031;44.750;11.308;2023-03-31T04:23:34;10.10;92.30
55135;DHT22;41031;44.750;11.308;2023-03-31T04:26:04;10.10;92.20
55135;DHT22;41031;44.750;11.308;2023-03-31T04:28:35;10.10;92.20
55135;DHT22;41031;44.750;11.308;2023-03-31T04:31:03;10.20;92.40
55135;DHT22;41031;44.750;11.308;2023-03-31T04:33:33;10.20;92.50
55135;DHT22;41031;44.750;11.308;2023-03-31T04:36:05;10.20;92.60
55135;DHT22;41031;44.750;11.308;2023-03-31T04:38:44;10.20;92.60
55135;DHT22;41031;44.750;11.308;2023-03-31T04:41:16;10.30;92.50
55135;DHT22;41031;44.750;11.308;2023-03-31T04:43:43;10.30;92.40
55135;DHT22;41031;44.750;11.308;2023-03-31T04:46:11;10.30;92.40
55135;DHT22;41031;44.750;11.308;2023-03-31T04:48:38;10.30;92.40
55135;DHT22;41031;44.750;11.308;2023-03-31T04:51:05;10.30;92.40
55135;DHT22;41031;44.750;11.308;2023-03-31T04:53:33;10.40;92.40
55135;DHT22;41031;44.750;11.308;2023-03-31T04:56:00;10.40;92.40
55135;DHT22;41031;44.750;11.308;2023-03-31T04:58:27;10.40;92.50
55135;DHT22;41031;44.750;11.308;2023-03-31T05:00:54;10.40;92.50
55135;DHT22;41031;44.750;11.308;2023-03-31T05:03:21;10.40;92.50
55135;DHT22;41031;44.750;11.308;2023-03-31T05:05:48;10.40;92.50
55135;DHT22;41031;44.750;11.308;2023-03-31T05:08:15;10.40;92.50
55135;DHT22;41031;44.750;11.308;2023-03-31T05:10:42;10.40;92.40
55135;DHT22;41031;44.750;11.308;2023-03-31T05:13:09;10.40;92.40
55135;DHT22;41031;44.750;11.308;2023-03-31T05:15:38;10.40;92.40
55135;DHT22;41031;44.750;11.308;2023-03-31T05:18:06;10.40;92.40
55135;DHT22;41031;44.750;11.308;2023-03-31T05:20:33;10.40;92.30
55135;DHT22;41031;44.750;11.308;2023-03-31T05:23:01;10.40;91.90
55135;DHT22;41031;44.750;11.308;2023-03-31T05:25:28;10.40;91.70
55135;DHT22;41031;44.750;11.308;2023-03-31T05:27:59;10.30;91.80
55135;DHT22;41031;44.750;11.308;2023-03-31T05:30:27;10.30;92.10
55135;DHT22;41031;44.750;11.308;2023-03-31T05:32:55;10.30;92.20
55135;DHT22;41031;44.750;11.308;2023-03-31T05:35:22;10.40;92.30
55135;DHT22;41031;44.750;11.308;2023-03-31T05:37:50;10.40;92.30
55135;DHT22;41031;44.750;11.308;2023-03-31T05:40:17;10.40;92.40
55135;DHT22;41031;44.750;11.308;2023-03-31T05:42:44;10.40;92.40
55135;DHT22;41031;44.750;11.308;2023-03-31T05:45:11;10.50;92.50
55135;DHT22;41031;44.750;11.308;2023-03-31T05:47:38;10.50;92.50
55135;DHT22;41031;44.750;11.308;2023-03-31T05:50:05;10.60;92.60
55135;DHT22;41031;44.750;11.308;2023-03-31T05:52:35;10.60;92.90
55135;DHT22;41031;44.750;11.308;2023-03-31T05:55:03;10.60;92.60
55135;DHT22;41031;44.750;11.308;2023-03-31T05:57:30;10.70;92.50
55135;DHT22;41031;44.750;11.308;2023-03-31T05:59:57;10.70;92.50
55135;DHT22;41031;44.750;11.308;2023-03-31T06:02:24;10.80;92.60
55135;DHT22;41031;44.750;11.308;2023-03-31T06:04:52;10.90;92.70
55135;DHT22;41031;44.750;11.308;2023-03-31T06:07:19;10.90;92.60
55135;DHT22;41031;44.750;11.308;2023-03-31T06:09:48;11.00;92.70
55135;DHT22;41031;44.750;11.308;2023-03-31T06:12:15;11.00;92.70
55135;DHT22;41031;44.750;11.308;2023-03-31T06:14:42;11.00;92.60
55135;DHT22;41031;44.750;11.308;2023-03-31T06:17:09;11.10;92.70
55135;DHT22;41031;44.750;11.308;2023-03-31T06:19:36;11.10;92.80
55135;DHT22;41031;44.750;11.308;2023-03-31T06:22:04;11.20;92.80
55135;DHT22;41031;44.750;11.308;2023-03-31T06:24:31;11.30;92.80
55135;DHT22;41031;44.750;11.308;2023-03-31T06:26:58;11.30;92.70
55135;DHT22;41031;44.750;11.308;2023-03-31T06:29:27;11.30;92.60
55135;DHT22;41031;44.750;11.308;2023-03-31T06:31:54;11.40;92.60
55135;DHT22;41031;44.750;11.308;2023-03-31T06:34:21;11.40;92.50
55135;DHT22;41031;44.750;11.308;2023-03-31T06:36:48;11.50;92.50
55135;DHT22;41031;44.750;11.308;2023-03-31T06:39:15;11.50;92.50
55135;DHT22;41031;44.750;11.308;2023-03-31T06:41:42;11.50;92.50
55135;DHT22;41031;44.750;11.308;2023-03-31T06:44:16;11.60;92.50
55135;DHT22;41031;44.750;11.308;2023-03-31T06:46:45;11.70;92.60
55135;DHT22;41031;44.750;11.308;2023-03-31T06:49:12;11.80;92.50
55135;DHT22;41031;44.750;11.308;2023-03-31T06:51:39;11.90;92.40
55135;DHT22;41031;44.750;11.308;2023-03-31T06:54:06;11.90;92.20
55135;DHT22;41031;44.750;11.308;2023-03-31T06:56:33;12.00;92.10
55135;DHT22;41031;44.750;11.308;2023-03-31T06:59:00;12.00;92.10
55135;DHT22;41031;44.750;11.308;2023-03-31T07:01:27;12.20;91.90
55135;DHT22;41031;44.750;11.308;2023-03-31T07:03:54;12.30;91.80
55135;DHT22;41031;44.750;11.308;2023-03-31T07:06:21;12.40;91.60
55135;DHT22;41031;44.750;11.308;2023-03-31T07:08:48;12.50;91.40
55135;DHT22;41031;44.750;11.308;2023-03-31T07:11:15;12.70;91.20
55135;DHT22;41031;44.750;11.308;2023-03-31T07:13:42;12.80;90.90
55135;DHT22;41031;44.750;11.308;2023-03-31T07:16:10;12.80;90.80
55135;DHT22;41031;44.750;11.308;2023-03-31T07:18:40;12.90;90.80
55135;DHT22;41031;44.750;11.308;2023-03-31T07:21:08;13.10;90.70
55135;DHT22;41031;44.750;11.308;2023-03-31T07:23:36;13.20;90.60
55135;DHT22;41031;44.750;11.308;2023-03-31T07:26:04;13.40;90.40
55135;DHT22;41031;44.750;11.308;2023-03-31T07:28:32;13.60;90.20
55135;DHT22;41031;44.750;11.308;2023-03-31T07:30:59;13.70;89.80
55135;DHT22;41031;44.750;11.308;2023-03-31T07:33:26;13.80;89.40
55135;DHT22;41031;44.750;11.308;2023-03-31T07:35:53;13.90;89.00
55135;DHT22;41031;44.750;11.308;2023-03-31T07:38:36;14.00;88.90
55135;DHT22;41031;44.750;11.308;2023-03-31T07:41:03;14.10;88.70
55135;DHT22;41031;44.750;11.308;2023-03-31T07:43:35;14.20;88.60
55135;DHT22;41031;44.750;11.308;2023-03-31T07:46:03;14.40;88.40
55135;DHT22;41031;44.750;11.308;2023-03-31T07:48:32;14.40;88.20
55135;DHT22;41031;44.750;11.308;2023-03-31T07:50:59;14.60;88.00
55135;DHT22;41031;44.750;11.308;2023-03-31T07:53:31;14.60;86.50
55135;DHT22;41031;44.750;11.308;2023-03-31T07:55:58;14.70;85.10
55135;DHT22;41031;44.750;11.308;2023-03-31T07:58:25;14.70;84.90
55135;DHT22;41031;44.750;11.308;2023-03-31T08:00:52;14.80;84.90
55135;DHT22;41031;44.750;11.308;2023-03-31T08:03:19;14.90;84.70
55135;DHT22;41031;44.750;11.308;2023-03-31T08:05:49;15.00;85.20
55135;DHT22;41031;44.750;11.308;2023-03-31T08:08:18;15.20;84.50
55135;DHT22;41031;44.750;11.308;2023-03-31T08:10:47;15.30;84.40
55135;DHT22;41031;44.750;11.308;2023-03-31T08:13:14;15.40;84.50
55135;DHT22;41031;44.750;11.308;2023-03-31T08:15:41;15.60;84.50
55135;DHT22;41031;44.750;11.308;2023-03-31T08:18:08;15.90;84.00
55135;DHT22;41031;44.750;11.308;2023-03-31T08:20:35;16.10;83.40
55135;DHT22;41031;44.750;11.308;2023-03-31T08:23:02;16.30;79.50
55135;DHT22;41031;44.750;11.308;2023-03-31T08:25:31;16.30;79.20
55135;DHT22;41031;44.750;11.308;2023-03-31T08:27:58;16.40;79.20
55135;DHT22;41031;44.750;11.308;2023-03-31T08:30:25;16.40;77.90
55135;DHT22;41031;44.750;11.308;2023-03-31T08:32:52;16.50;78.00
55135;DHT22;41031;44.750;11.308;2023-03-31T08:35:19;16.50;75.70
55135;DHT22;41031;44.750;11.308;2023-03-31T08:37:46;16.50;75.30
55135;DHT22;41031;44.750;11.308;2023-03-31T08:40:20;16.60;76.00
55135;DHT22;41031;44.750;11.308;2023-03-31T08:43:11;16.60;76.70
55135;DHT22;41031;44.750;11.308;2023-03-31T08:45:42;16.60;77.80
55135;DHT22;41031;44.750;11.308;2023-03-31T08:48:28;16.60;78.20
55135;DHT22;41031;44.750;11.308;2023-03-31T08:51:08;16.70;78.60
55135;DHT22;41031;44.750;11.308;2023-03-31T08:53:42;16.80;79.00
55135;DHT22;41031;44.750;11.308;2023-03-31T08:56:16;17.00;78.20
55135;DHT22;41031;44.750;11.308;2023-03-31T08:58:49;17.10;78.40
55135;DHT22;41031;44.750;11.308;2023-03-31T09:01:23;17.30;78.20
55135;DHT22;41031;44.750;11.308;2023-03-31T09:09:46;17.30;76.40
55135;DHT22;41031;44.750;11.308;2023-03-31T09:12:22;17.40;76.50
55135;DHT22;41031;44.750;11.308;2023-03-31T09:14:59;17.50;74.80
55135;DHT22;41031;44.750;11.308;2023-03-31T09:17:40;17.60;74.20
55135;DHT22;41031;44.750;11.308;2023-03-31T09:20:17;17.60;74.80
55135;DHT22;41031;44.750;11.308;2023-03-31T09:22:53;17.70;75.30
55135;DHT22;41031;44.750;11.308;2023-03-31T09:25:33;17.80;75.70
55135;DHT22;41031;44.750;11.308;2023-03-31T09:28:03;17.90;75.70
55135;DHT22;41031;44.750;11.308;2023-03-31T09:30:34;18.10;75.90
55135;DHT22;41031;44.750;11.308;2023-03-31T09:33:13;18.20;73.70
55135;DHT22;41031;44.750;11.308;2023-03-31T09:35:42;18.30;73.70
55135;DHT22;41031;44.750;11.308;2023-03-31T09:38:13;18.40;74.20
55135;DHT22;41031;44.750;11.308;2023-03-31T09:40:41;18.50;74.10
55135;DHT22;41031;44.750;11.308;2023-03-31T09:45:43;18.90;72.80
55135;DHT22;41031;44.750;11.308;2023-03-31T09:48:33;19.00;72.50
55135;DHT22;41031;44.750;11.308;2023-03-31T09:51:06;19.20;71.30
55135;DHT22;41031;44.750;11.308;2023-03-31T09:53:50;19.40;70.20
55135;DHT22;41031;44.750;11.308;2023-03-31T09:56:45;19.60;68.20
55135;DHT22;41031;44.750;11.308;2023-03-31T09:59:19;19.70;68.30
55135;DHT22;41031;44.750;11.308;2023-03-31T10:01:52;19.80;66.50
55135;DHT22;41031;44.750;11.308;2023-03-31T10:04:24;20.00;63.70
55135;DHT22;41031;44.750;11.308;2023-03-31T10:06:53;20.10;64.10
55135;DHT22;41031;44.750;11.308;2023-03-31T10:09:31;20.20;64.40
55135;DHT22;41031;44.750;11.308;2023-03-31T10:12:05;20.30;64.50
55135;DHT22;41031;44.750;11.308;2023-03-31T10:14:47;20.40;63.70
55135;DHT22;41031;44.750;11.308;2023-03-31T10:17:17;20.60;62.70
55135;DHT22;41031;44.750;11.308;2023-03-31T10:24:50;20.90;62.50
55135;DHT22;41031;44.750;11.308;2023-03-31T10:27:24;21.00;62.10
55135;DHT22;41031;44.750;11.308;2023-03-31T10:29:57;21.20;59.70
55135;DHT22;41031;44.750;11.308;2023-03-31T10:32:32;21.20;60.20
55135;DHT22;41031;44.750;11.308;2023-03-31T10:35:06;21.20;59.80
55135;DHT22;41031;44.750;11.308;2023-03-31T10:37:35;21.30;59.30
55135;DHT22;41031;44.750;11.308;2023-03-31T10:40:13;21.30;58.50
55135;DHT22;41031;44.750;11.308;2023-03-31T10:42:45;21.30;58.50
55135;DHT22;41031;44.750;11.308;2023-03-31T10:45:28;21.40;59.80
55135;DHT22;41031;44.750;11.308;2023-03-31T10:48:04;21.30;59.60
55135;DHT22;41031;44.750;11.308;2023-03-31T10:50:35;21.30;59.40
55135;DHT22;41031;44.750;11.308;2023-03-31T10:53:13;21.30;59.60
55135;DHT22;41031;44.750;11.308;2023-03-31T11:22:33;22.10;56.10
55135;DHT22;41031;44.750;11.308;2023-03-31T11:31:03;22.30;54.50
55135;DHT22;41031;44.750;11.308;2023-03-31T11:34:17;22.40;53.80
55135;DHT22;41031;44.750;11.308;2023-03-31T11:42:22;22.40;52.90
55135;DHT22;41031;44.750;11.308;2023-03-31T11:44:56;22.40;53.10
55135;DHT22;41031;44.750;11.308;2023-03-31T11:47:33;22.40;52.90
55135;DHT22;41031;44.750;11.308;2023-03-31T11:50:10;22.30;52.50
55135;DHT22;41031;44.750;11.308;2023-03-31T11:52:41;22.20;53.80
55135;DHT22;41031;44.750;11.308;2023-03-31T11:55:20;22.10;53.70
55135;DHT22;41031;44.750;11.308;2023-03-31T11:58:10;22.10;52.80
55135;DHT22;41031;44.750;11.308;2023-03-31T12:00:56;22.10;52.50
55135;DHT22;41031;44.750;11.308;2023-03-31T12:03:41;22.10;52.70
55135;DHT22;41031;44.750;11.308;2023-03-31T12:06:16;22.10;52.00
55135;DHT22;41031;44.750;11.308;2023-03-31T12:11:58;22.20;51.10
55135;DHT22;41031;44.750;11.308;2023-03-31T12:14:52;22.20;52.50
55135;DHT22;41031;44.750;11.308;2023-03-31T12:17:27;22.10;53.20
55135;DHT22;41031;44.750;11.308;2023-03-31T12:19:59;22.10;53.50
55135;DHT22;41031;44.750;11.308;2023-03-31T12:22:35;22.00;53.40
55135;DHT22;41031;44.750;11.308;2023-03-31T12:25:05;22.00;54.00
55135;DHT22;41031;44.750;11.308;2023-03-31T12:27:38;22.00;53.90
55135;DHT22;41031;44.750;11.308;2023-03-31T12:30:19;22.10;53.10
55135;DHT22;41031;44.750;11.308;2023-03-31T12:32:53;22.10;53.00
55135;DHT22;41031;44.750;11.308;2023-03-31T12:35:28;22.10;53.40
55135;DHT22;41031;44.750;11.308;2023-03-31T12:40:59;22.10;54.20
55135;DHT22;41031;44.750;11.308;2023-03-31T12:52:01;22.40;53.90
55135;DHT22;41031;44.750;11.308;2023-03-31T12:57:22;22.60;51.90
55135;DHT22;41031;44.750;11.308;2023-03-31T13:02:39;22.40;49.40
55135;DHT22;41031;44.750;11.308;2023-03-31T13:08:07;22.40;50.90
55135;DHT22;41031;44.750;11.308;2023-03-31T13:10:56;22.60;51.40
55135;DHT22;41031;44.750;11.308;2023-03-31T13:13:25;22.70;49.60
55135;DHT22;41031;44.750;11.308;2023-03-31T13:15:54;22.70;50.20
55135;DHT22;41031;44.750;11.308;2023-03-31T13:18:22;22.70;51.50
55135;DHT22;41031;44.750;11.308;2023-03-31T13:21:03;22.60;50.50
55135;DHT22;41031;44.750;11.308;2023-03-31T13:23:35;22.60;51.40
55135;DHT22;41031;44.750;11.308;2023-03-31T13:26:04;22.50;52.20
55135;DHT22;41031;44.750;11.308;2023-03-31T13:28:42;22.50;52.70
55135;DHT22;41031;44.750;11.308;2023-03-31T13:31:13;22.50;52.90
55135;DHT22;41031;44.750;11.308;2023-03-31T13:33:55;22.50;53.10
55135;DHT22;41031;44.750;11.308;2023-03-31T13:39:33;22.40;52.90
55135;DHT22;41031;44.750;11.308;2023-03-31T13:45:06;22.40;53.70
55135;DHT22;41031;44.750;11.308;2023-03-31T13:56:36;22.00;52.90
55135;DHT22;41031;44.750;11.308;2023-03-31T14:07:21;21.50;57.70
55135;DHT22;41031;44.750;11.308;2023-03-31T14:09:52;21.50;57.10
55135;DHT22;41031;44.750;11.308;2023-03-31T14:14:52;21.40;56.80
55135;DHT22;41031;44.750;11.308;2023-03-31T14:17:25;21.30;57.20
55135;DHT22;41031;44.750;11.308;2023-03-31T14:23:42;21.00;58.80
55135;DHT22;41031;44.750;11.308;2023-03-31T14:25:56;20.90;58.90
55135;DHT22;41031;44.750;11.308;2023-03-31T14:31:27;20.90;59.70
55135;DHT22;41031;44.750;11.308;2023-03-31T14:34:23;20.90;59.40
55135;DHT22;41031;44.750;11.308;2023-03-31T14:39:30;21.10;58.60
55135;DHT22;41031;44.750;11.308;2023-03-31T14:42:02;21.10;58.70
55135;DHT22;41031;44.750;11.308;2023-03-31T14:44:29;21.10;58.20
55135;DHT22;41031;44.750;11.308;2023-03-31T14:46:58;21.10;58.30
55135;DHT22;41031;44.750;11.308;2023-03-31T14:49:29;21.10;58.00
55135;DHT22;41031;44.750;11.308;2023-03-31T14:52:03;21.10;58.50
55135;DHT22;41031;44.750;11.308;2023-03-31T14:54:35;21.00;58.30
55135;DHT22;41031;44.750;11.308;2023-03-31T14:57:04;20.90;58.50
55135;DHT22;41031;44.750;11.308;2023-03-31T14:59:33;20.90;59.10
55135;DHT22;41031;44.750;11.308;2023-03-31T15:02:02;20.90;59.50
55135;DHT22;41031;44.750;11.308;2023-03-31T15:04:35;20.90;59.70
55135;DHT22;41031;44.750;11.308;2023-03-31T15:07:11;20.90;59.80
55135;DHT22;41031;44.750;11.308;2023-03-31T15:09:39;20.90;59.90
55135;DHT22;41031;44.750;11.308;2023-03-31T15:12:11;20.90;59.80
55135;DHT22;41031;44.750;11.308;2023-03-31T15:14:56;20.90;58.80
55135;DHT22;41031;44.750;11.308;2023-03-31T15:17:27;20.90;58.90
55135;DHT22;41031;44.750;11.308;2023-03-31T15:19:57;20.90;58.80
55135;DHT22;41031;44.750;11.308;2023-03-31T15:22:26;20.90;58.20
55135;DHT22;41031;44.750;11.308;2023-03-31T15:24:54;20.80;57.40
55135;DHT22;41031;44.750;11.308;2023-03-31T15:27:37;20.70;58.20
55135;DHT22;41031;44.750;11.308;2023-03-31T15:30:08;20.50;58.50
55135;DHT22;41031;44.750;11.308;2023-03-31T15:32:40;20.40;58.10
55135;DHT22;41031;44.750;11.308;2023-03-31T15:35:20;20.20;59.30
55135;DHT22;41031;44.750;11.308;2023-03-31T15:37:50;20.10;58.50
55135;DHT22;41031;44.750;11.308;2023-03-31T15:40:29;20.00;58.20
55135;DHT22;41031;44.750;11.308;2023-03-31T15:43:15;19.90;58.90
55135;DHT22;41031;44.750;11.308;2023-03-31T15:45:56;19.80;58.80
55135;DHT22;41031;44.750;11.308;2023-03-31T15:48:33;19.70;59.70
55135;DHT22;41031;44.750;11.308;2023-03-31T15:51:06;19.70;60.10
55135;DHT22;41031;44.750;11.308;2023-03-31T15:53:48;19.70;58.60
55135;DHT22;41031;44.750;11.308;2023-03-31T15:56:36;19.70;58.00
55135;DHT22;41031;44.750;11.308;2023-03-31T15:59:21;19.60;58.80
55135;DHT22;41031;44.750;11.308;2023-03-31T16:01:55;19.60;60.00
55135;DHT22;41031;44.750;11.308;2023-03-31T16:04:23;19.50;59.30
55135;DHT22;41031;44.750;11.308;2023-03-31T16:06:56;19.50;59.10
55135;DHT22;41031;44.750;11.308;2023-03-31T16:11:55;19.40;61.00
55135;DHT22;41031;44.750;11.308;2023-03-31T16:16:58;19.20;59.90
55135;DHT22;41031;44.750;11.308;2023-03-31T16:19:29;19.20;60.90
55135;DHT22;41031;44.750;11.308;2023-03-31T16:21:58;19.20;59.50
55135;DHT22;41031;44.750;11.308;2023-03-31T16:24:31;19.10;60.70
55135;DHT22;41031;44.750;11.308;2023-03-31T16:27:03;19.10;59.90
55135;DHT22;41031;44.750;11.308;2023-03-31T16:29:36;19.00;60.40
55135;DHT22;41031;44.750;11.308;2023-03-31T16:32:21;18.90;60.60
55135;DHT22;41031;44.750;11.308;2023-03-31T16:34:52;18.90;61.30
55135;DHT22;41031;44.750;11.308;2023-03-31T16:37:19;18.80;61.10
55135;DHT22;41031;44.750;11.308;2023-03-31T16:39:46;18.80;61.70
55135;DHT22;41031;44.750;11.308;2023-03-31T16:42:13;18.70;60.80
55135;DHT22;41031;44.750;11.308;2023-03-31T16:44:40;18.70;61.40
55135;DHT22;41031;44.750;11.308;2023-03-31T16:47:08;18.70;61.20
55135;DHT22;41031;44.750;11.308;2023-03-31T16:49:43;18.60;61.90
55135;DHT22;41031;44.750;11.308;2023-03-31T16:52:10;18.60;62.00
55135;DHT22;41031;44.750;11.308;2023-03-31T16:54:38;18.50;62.00
55135;DHT22;41031;44.750;11.308;2023-03-31T16:57:05;18.50;62.60
55135;DHT22;41031;44.750;11.308;2023-03-31T16:59:32;18.50;63.50
55135;DHT22;41031;44.750;11.308;2023-03-31T17:01:59;18.40;64.00
55135;DHT22;41031;44.750;11.308;2023-03-31T17:04:27;18.40;64.30
55135;DHT22;41031;44.750;11.308;2023-03-31T17:06:54;18.30;64.70
55135;DHT22;41031;44.750;11.308;2023-03-31T17:09:21;18.30;65.20
55135;DHT22;41031;44.750;11.308;2023-03-31T17:11:48;18.20;66.00
55135;DHT22;41031;44.750;11.308;2023-03-31T17:14:16;18.20;67.50
55135;DHT22;41031;44.750;11.308;2023-03-31T17:16:43;18.20;68.40
55135;DHT22;41031;44.750;11.308;2023-03-31T17:19:15;18.10;69.50
55135;DHT22;41031;44.750;11.308;2023-03-31T17:21:43;18.00;70.90
55135;DHT22;41031;44.750;11.308;2023-03-31T17:24:10;18.00;71.80
55135;DHT22;41031;44.750;11.308;2023-03-31T17:26:37;17.90;72.30
55135;DHT22;41031;44.750;11.308;2023-03-31T17:29:05;17.90;73.00
55135;DHT22;41031;44.750;11.308;2023-03-31T17:31:32;17.80;72.90
55135;DHT22;41031;44.750;11.308;2023-03-31T17:33:59;17.70;72.90
55135;DHT22;41031;44.750;11.308;2023-03-31T17:36:27;17.70;73.30
55135;DHT22;41031;44.750;11.308;2023-03-31T17:38:54;17.60;73.80
55135;DHT22;41031;44.750;11.308;2023-03-31T17:41:21;17.60;74.20
55135;DHT22;41031;44.750;11.308;2023-03-31T17:43:48;17.50;74.20
55135;DHT22;41031;44.750;11.308;2023-03-31T17:46:16;17.50;74.80
55135;DHT22;41031;44.750;11.308;2023-03-31T17:48:44;17.50;75.20
55135;DHT22;41031;44.750;11.308;2023-03-31T17:51:13;17.40;75.90
55135;DHT22;41031;44.750;11.308;2023-03-31T17:53:42;17.40;75.70
55135;DHT22;41031;44.750;11.308;2023-03-31T17:56:12;17.40;75.80
55135;DHT22;41031;44.750;11.308;2023-03-31T17:58:39;17.30;76.00
55135;DHT22;41031;44.750;11.308;2023-03-31T18:01:08;17.30;76.20
55135;DHT22;41031;44.750;11.308;2023-03-31T18:03:35;17.30;76.20
55135;DHT22;41031;44.750;11.308;2023-03-31T18:06:09;17.20;76.40
55135;DHT22;41031;44.750;11.308;2023-03-31T18:08:39;17.20;76.50
55135;DHT22;41031;44.750;11.308;2023-03-31T18:11:06;17.20;76.30
55135;DHT22;41031;44.750;11.308;2023-03-31T18:13:35;17.20;76.20
55135;DHT22;41031;44.750;11.308;2023-03-31T18:16:03;17.20;76.30
55135;DHT22;41031;44.750;11.308;2023-03-31T18:18:31;17.20;76.50
55135;DHT22;41031;44.750;11.308;2023-03-31T18:21:06;17.10;76.60
55135;DHT22;41031;44.750;11.308;2023-03-31T18:23:34;17.10;76.80
55135;DHT22;41031;44.750;11.308;2023-03-31T18:26:04;17.10;76.80
55135;DHT22;41031;44.750;11.308;2023-03-31T18:28:31;17.00;76.90
55135;DHT22;41031;44.750;11.308;2023-03-31T18:31:08;16.90;77.10
55135;DHT22;41031;44.750;11.308;2023-03-31T18:33:35;16.90;77.20